ADDS TAF Data INFO
IDs: Format: Raw Decoded Include METARs

Data at: 1810 UTC 24 Jun 2018

KSDL 241753Z 00000KT 10SM CLR 33/10 A2992 RMK AO2 SLP103 T03330100 10339 20256 51005 $

KSDL 241720Z 2418/2518 22008KT P6SM SKC
  FM250500 VRB04KT P6SM SKC